sensor_id;sensor_type;location;lat;lon;timestamp;temperature;humidity
20650;DHT22;10484;48.736;9.332;2022-09-17T00:01:07;12.40;1.00
20650;DHT22;10484;48.736;9.332;2022-09-17T00:03:34;12.30;1.00
20650;DHT22;10484;48.736;9.332;2022-09-17T00:06:04;12.30;1.00
20650;DHT22;10484;48.736;9.332;2022-09-17T00:08:31;12.30;1.00
20650;DHT22;10484;48.736;9.332;2022-09-17T00:10:58;12.30;1.00
20650;DHT22;10484;48.736;9.332;2022-09-17T00:13:29;12.30;1.00
20650;DHT22;10484;48.736;9.332;2022-09-17T00:15:55;12.20;1.00
20650;DHT22;10484;48.736;9.332;2022-09-17T00:18:21;12.20;1.00
20650;DHT22;10484;48.736;9.332;2022-09-17T00:20:46;12.20;1.00
20650;DHT22;10484;48.736;9.332;2022-09-17T00:23:13;12.20;1.00
20650;DHT22;10484;48.736;9.332;2022-09-17T00:25:40;12.20;1.00
20650;DHT22;10484;48.736;9.332;2022-09-17T00:28:07;12.20;1.00
20650;DHT22;10484;48.736;9.332;2022-09-17T00:30:33;12.20;1.00
20650;DHT22;10484;48.736;9.332;2022-09-17T00:32:58;12.10;1.00
20650;DHT22;10484;48.736;9.332;2022-09-17T00:35:25;12.10;1.00
20650;DHT22;10484;48.736;9.332;2022-09-17T00:37:51;12.10;1.00
20650;DHT22;10484;48.736;9.332;2022-09-17T00:40:18;12.10;1.00
20650;DHT22;10484;48.736;9.332;2022-09-17T00:42:44;12.00;1.00
20650;DHT22;10484;48.736;9.332;2022-09-17T00:45:10;12.10;1.00
20650;DHT22;10484;48.736;9.332;2022-09-17T00:47:45;12.00;1.00
20650;DHT22;10484;48.736;9.332;2022-09-17T00:50:37;12.00;1.00
20650;DHT22;10484;48.736;9.332;2022-09-17T00:53:05;12.00;1.00
20650;DHT22;10484;48.736;9.332;2022-09-17T00:55:35;12.00;1.00
20650;DHT22;10484;48.736;9.332;2022-09-17T00:58:05;12.00;1.00
20650;DHT22;10484;48.736;9.332;2022-09-17T01:00:31;12.00;1.00
20650;DHT22;10484;48.736;9.332;2022-09-17T01:02:57;12.00;1.00
20650;DHT22;10484;48.736;9.332;2022-09-17T01:19:18;11.90;1.00
20650;DHT22;10484;48.736;9.332;2022-09-17T01:22:18;11.90;1.00
20650;DHT22;10484;48.736;9.332;2022-09-17T01:30:35;11.80;1.00
20650;DHT22;10484;48.736;9.332;2022-09-17T01:33:09;11.70;1.00
20650;DHT22;10484;48.736;9.332;2022-09-17T01:35:57;11.70;1.00
20650;DHT22;10484;48.736;9.332;2022-09-17T01:38:33;11.70;1.00
20650;DHT22;10484;48.736;9.332;2022-09-17T01:41:54;11.70;1.00
20650;DHT22;10484;48.736;9.332;2022-09-17T01:44:24;11.70;1.00
20650;DHT22;10484;48.736;9.332;2022-09-17T01:47:00;11.60;1.00
20650;DHT22;10484;48.736;9.332;2022-09-17T01:49:29;11.60;1.00
20650;DHT22;10484;48.736;9.332;2022-09-17T01:51:56;11.60;1.00
20650;DHT22;10484;48.736;9.332;2022-09-17T01:54:26;11.60;1.00
20650;DHT22;10484;48.736;9.332;2022-09-17T01:57:02;11.60;1.00
20650;DHT22;10484;48.736;9.332;2022-09-17T01:59:30;11.60;1.00
20650;DHT22;10484;48.736;9.332;2022-09-17T02:02:06;11.50;1.00
20650;DHT22;10484;48.736;9.332;2022-09-17T02:04:37;11.50;1.00
20650;DHT22;10484;48.736;9.332;2022-09-17T02:07:12;11.50;1.00
20650;DHT22;10484;48.736;9.332;2022-09-17T02:09:50;11.50;1.00
20650;DHT22;10484;48.736;9.332;2022-09-17T02:12:22;11.40;1.00
20650;DHT22;10484;48.736;9.332;2022-09-17T02:14:55;11.40;1.00
20650;DHT22;10484;48.736;9.332;2022-09-17T02:17:30;11.40;1.00
20650;DHT22;10484;48.736;9.332;2022-09-17T02:19:57;11.40;1.00
20650;DHT22;10484;48.736;9.332;2022-09-17T02:22:51;11.40;1.00
20650;DHT22;10484;48.736;9.332;2022-09-17T02:25:37;11.40;1.00
20650;DHT22;10484;48.736;9.332;2022-09-17T02:30:50;11.40;1.00
20650;DHT22;10484;48.736;9.332;2022-09-17T02:33:16;11.40;1.00
20650;DHT22;10484;48.736;9.332;2022-09-17T02:35:43;11.40;1.00
20650;DHT22;10484;48.736;9.332;2022-09-17T02:38:10;11.30;1.00
20650;DHT22;10484;48.736;9.332;2022-09-17T02:40:45;11.40;1.00
20650;DHT22;10484;48.736;9.332;2022-09-17T02:46:02;11.30;1.00
20650;DHT22;10484;48.736;9.332;2022-09-17T02:51:59;11.30;1.00
20650;DHT22;10484;48.736;9.332;2022-09-17T02:54:44;11.30;1.00
20650;DHT22;10484;48.736;9.332;2022-09-17T02:57:32;11.30;1.00
20650;DHT22;10484;48.736;9.332;2022-09-17T03:05:08;11.20;1.00
20650;DHT22;10484;48.736;9.332;2022-09-17T03:07:35;11.20;1.00
20650;DHT22;10484;48.736;9.332;2022-09-17T03:10:02;11.20;1.00
20650;DHT22;10484;48.736;9.332;2022-09-17T03:12:27;11.20;1.00
20650;DHT22;10484;48.736;9.332;2022-09-17T03:14:53;11.20;1.00
20650;DHT22;10484;48.736;9.332;2022-09-17T03:17:19;11.20;1.00
20650;DHT22;10484;48.736;9.332;2022-09-17T03:19:44;11.20;1.00
20650;DHT22;10484;48.736;9.332;2022-09-17T03:22:10;11.20;1.00
20650;DHT22;10484;48.736;9.332;2022-09-17T03:24:36;11.20;1.00
20650;DHT22;10484;48.736;9.332;2022-09-17T03:27:02;11.10;1.00
20650;DHT22;10484;48.736;9.332;2022-09-17T03:29:28;11.10;1.00
20650;DHT22;10484;48.736;9.332;2022-09-17T03:31:53;11.10;1.00
20650;DHT22;10484;48.736;9.332;2022-09-17T03:34:19;11.10;1.00
20650;DHT22;10484;48.736;9.332;2022-09-17T03:36:45;11.10;1.00
20650;DHT22;10484;48.736;9.332;2022-09-17T03:39:11;11.10;1.00
20650;DHT22;10484;48.736;9.332;2022-09-17T03:41:37;11.10;1.00
20650;DHT22;10484;48.736;9.332;2022-09-17T03:44:03;11.10;1.00
20650;DHT22;10484;48.736;9.332;2022-09-17T03:46:28;11.10;1.00
20650;DHT22;10484;48.736;9.332;2022-09-17T03:48:54;11.00;1.00
20650;DHT22;10484;48.736;9.332;2022-09-17T03:51:20;11.00;1.00
20650;DHT22;10484;48.736;9.332;2022-09-17T03:53:46;11.00;1.00
20650;DHT22;10484;48.736;9.332;2022-09-17T03:56:11;11.00;1.00
20650;DHT22;10484;48.736;9.332;2022-09-17T03:58:37;11.00;1.00
20650;DHT22;10484;48.736;9.332;2022-09-17T04:01:03;11.00;1.00
20650;DHT22;10484;48.736;9.332;2022-09-17T04:03:29;11.00;1.00
20650;DHT22;10484;48.736;9.332;2022-09-17T04:05:55;11.00;1.00
20650;DHT22;10484;48.736;9.332;2022-09-17T04:08:21;10.90;1.00
20650;DHT22;10484;48.736;9.332;2022-09-17T04:10:47;10.90;1.00
20650;DHT22;10484;48.736;9.332;2022-09-17T04:13:15;10.90;1.00
20650;DHT22;10484;48.736;9.332;2022-09-17T04:15:41;10.90;1.00
20650;DHT22;10484;48.736;9.332;2022-09-17T04:18:07;10.90;1.00
20650;DHT22;10484;48.736;9.332;2022-09-17T04:20:33;10.90;1.00
20650;DHT22;10484;48.736;9.332;2022-09-17T04:22:59;10.90;1.00
20650;DHT22;10484;48.736;9.332;2022-09-17T04:25:24;10.90;1.00
20650;DHT22;10484;48.736;9.332;2022-09-17T04:27:50;10.80;1.00
20650;DHT22;10484;48.736;9.332;2022-09-17T04:30:16;10.80;1.00
20650;DHT22;10484;48.736;9.332;2022-09-17T04:32:43;10.80;1.00
20650;DHT22;10484;48.736;9.332;2022-09-17T04:35:10;10.80;1.00
20650;DHT22;10484;48.736;9.332;2022-09-17T04:37:36;10.80;1.00
20650;DHT22;10484;48.736;9.332;2022-09-17T04:40:03;10.80;1.00
20650;DHT22;10484;48.736;9.332;2022-09-17T04:42:29;10.80;1.00
20650;DHT22;10484;48.736;9.332;2022-09-17T04:44:54;10.80;1.00
20650;DHT22;10484;48.736;9.332;2022-09-17T04:47:20;10.80;1.00
20650;DHT22;10484;48.736;9.332;2022-09-17T04:49:46;10.80;1.00
20650;DHT22;10484;48.736;9.332;2022-09-17T04:52:12;10.80;1.00
20650;DHT22;10484;48.736;9.332;2022-09-17T04:54:38;10.70;1.00
20650;DHT22;10484;48.736;9.332;2022-09-17T04:57:03;10.70;1.00
20650;DHT22;10484;48.736;9.332;2022-09-17T04:59:29;10.70;1.00
20650;DHT22;10484;48.736;9.332;2022-09-17T05:01:55;10.70;1.00
20650;DHT22;10484;48.736;9.332;2022-09-17T05:04:20;10.70;1.00
20650;DHT22;10484;48.736;9.332;2022-09-17T05:06:46;10.80;1.00
20650;DHT22;10484;48.736;9.332;2022-09-17T05:09:12;10.80;1.00
20650;DHT22;10484;48.736;9.332;2022-09-17T05:11:39;10.80;1.00
20650;DHT22;10484;48.736;9.332;2022-09-17T05:14:05;10.80;1.00
20650;DHT22;10484;48.736;9.332;2022-09-17T05:16:30;10.80;1.00
20650;DHT22;10484;48.736;9.332;2022-09-17T05:18:56;10.80;1.00
20650;DHT22;10484;48.736;9.332;2022-09-17T05:21:22;10.80;1.00
20650;DHT22;10484;48.736;9.332;2022-09-17T05:23:48;10.80;1.00
20650;DHT22;10484;48.736;9.332;2022-09-17T05:26:14;10.80;1.00
20650;DHT22;10484;48.736;9.332;2022-09-17T05:28:40;10.80;1.00
20650;DHT22;10484;48.736;9.332;2022-09-17T05:31:06;10.80;1.00
20650;DHT22;10484;48.736;9.332;2022-09-17T05:33:31;10.80;1.00
20650;DHT22;10484;48.736;9.332;2022-09-17T05:35:57;10.80;1.00
20650;DHT22;10484;48.736;9.332;2022-09-17T05:38:22;10.80;1.00
20650;DHT22;10484;48.736;9.332;2022-09-17T05:40:48;10.90;1.00
20650;DHT22;10484;48.736;9.332;2022-09-17T05:43:14;10.80;1.00
20650;DHT22;10484;48.736;9.332;2022-09-17T05:45:40;10.90;1.00
20650;DHT22;10484;48.736;9.332;2022-09-17T05:48:11;10.90;1.00
20650;DHT22;10484;48.736;9.332;2022-09-17T05:50:38;10.90;1.00
20650;DHT22;10484;48.736;9.332;2022-09-17T05:53:05;10.90;1.00
20650;DHT22;10484;48.736;9.332;2022-09-17T05:55:32;10.80;1.00
20650;DHT22;10484;48.736;9.332;2022-09-17T05:57:57;10.80;1.00
20650;DHT22;10484;48.736;9.332;2022-09-17T06:00:23;10.90;1.00
20650;DHT22;10484;48.736;9.332;2022-09-17T06:02:55;10.90;1.00
20650;DHT22;10484;48.736;9.332;2022-09-17T06:05:22;10.90;1.00
20650;DHT22;10484;48.736;9.332;2022-09-17T06:07:48;10.90;1.00
20650;DHT22;10484;48.736;9.332;2022-09-17T06:10:14;10.80;1.00
20650;DHT22;10484;48.736;9.332;2022-09-17T06:12:40;10.90;1.00
20650;DHT22;10484;48.736;9.332;2022-09-17T06:15:05;10.90;1.00
20650;DHT22;10484;48.736;9.332;2022-09-17T06:17:32;10.90;1.00
20650;DHT22;10484;48.736;9.332;2022-09-17T06:19:59;10.90;1.00
20650;DHT22;10484;48.736;9.332;2022-09-17T06:22:25;10.90;1.00
20650;DHT22;10484;48.736;9.332;2022-09-17T06:24:50;10.90;1.00
20650;DHT22;10484;48.736;9.332;2022-09-17T06:27:16;10.90;1.00
20650;DHT22;10484;48.736;9.332;2022-09-17T06:29:42;10.90;1.00
20650;DHT22;10484;48.736;9.332;2022-09-17T06:32:08;11.00;1.00
20650;DHT22;10484;48.736;9.332;2022-09-17T06:34:38;11.00;1.00
20650;DHT22;10484;48.736;9.332;2022-09-17T06:37:04;11.00;1.00
20650;DHT22;10484;48.736;9.332;2022-09-17T06:39:30;11.00;1.00
20650;DHT22;10484;48.736;9.332;2022-09-17T06:41:55;11.00;1.00
20650;DHT22;10484;48.736;9.332;2022-09-17T06:44:21;11.00;1.00
20650;DHT22;10484;48.736;9.332;2022-09-17T06:46:50;11.00;1.00
20650;DHT22;10484;48.736;9.332;2022-09-17T06:49:16;11.00;1.00
20650;DHT22;10484;48.736;9.332;2022-09-17T06:51:43;11.00;1.00
20650;DHT22;10484;48.736;9.332;2022-09-17T06:54:08;11.00;1.00
20650;DHT22;10484;48.736;9.332;2022-09-17T06:56:34;11.00;1.00
20650;DHT22;10484;48.736;9.332;2022-09-17T06:59:00;11.00;1.00
20650;DHT22;10484;48.736;9.332;2022-09-17T07:01:26;11.00;1.00
20650;DHT22;10484;48.736;9.332;2022-09-17T07:03:52;11.00;1.00
20650;DHT22;10484;48.736;9.332;2022-09-17T07:06:18;11.00;1.00
20650;DHT22;10484;48.736;9.332;2022-09-17T07:08:43;11.10;1.00
20650;DHT22;10484;48.736;9.332;2022-09-17T07:11:09;11.10;1.00
20650;DHT22;10484;48.736;9.332;2022-09-17T07:13:35;11.10;1.00
20650;DHT22;10484;48.736;9.332;2022-09-17T07:16:02;11.10;1.00
20650;DHT22;10484;48.736;9.332;2022-09-17T07:18:29;11.10;1.00
20650;DHT22;10484;48.736;9.332;2022-09-17T07:20:57;11.10;1.00
20650;DHT22;10484;48.736;9.332;2022-09-17T07:23:24;11.10;1.00
20650;DHT22;10484;48.736;9.332;2022-09-17T07:25:54;11.10;1.00
20650;DHT22;10484;48.736;9.332;2022-09-17T07:28:20;11.10;1.00
20650;DHT22;10484;48.736;9.332;2022-09-17T07:30:47;11.10;1.00
20650;DHT22;10484;48.736;9.332;2022-09-17T07:33:14;11.10;1.00
20650;DHT22;10484;48.736;9.332;2022-09-17T07:35:40;11.10;1.00
20650;DHT22;10484;48.736;9.332;2022-09-17T07:38:05;11.10;1.00
20650;DHT22;10484;48.736;9.332;2022-09-17T07:40:31;11.10;1.00
20650;DHT22;10484;48.736;9.332;2022-09-17T07:42:57;11.10;1.00
20650;DHT22;10484;48.736;9.332;2022-09-17T07:45:23;11.20;1.00
20650;DHT22;10484;48.736;9.332;2022-09-17T07:47:49;11.10;1.00
20650;DHT22;10484;48.736;9.332;2022-09-17T07:50:15;11.10;1.00
20650;DHT22;10484;48.736;9.332;2022-09-17T07:52:47;11.10;1.00
20650;DHT22;10484;48.736;9.332;2022-09-17T07:55:13;11.10;1.00
20650;DHT22;10484;48.736;9.332;2022-09-17T07:57:39;11.10;1.00
20650;DHT22;10484;48.736;9.332;2022-09-17T08:00:06;11.10;1.00
20650;DHT22;10484;48.736;9.332;2022-09-17T08:02:32;11.10;1.00
20650;DHT22;10484;48.736;9.332;2022-09-17T08:04:57;11.10;1.00
20650;DHT22;10484;48.736;9.332;2022-09-17T08:07:23;11.10;1.00
20650;DHT22;10484;48.736;9.332;2022-09-17T08:09:49;11.10;1.00
20650;DHT22;10484;48.736;9.332;2022-09-17T08:12:15;11.10;1.00
20650;DHT22;10484;48.736;9.332;2022-09-17T08:14:42;11.10;1.00
20650;DHT22;10484;48.736;9.332;2022-09-17T08:17:08;11.20;1.00
20650;DHT22;10484;48.736;9.332;2022-09-17T08:19:34;11.20;1.00
20650;DHT22;10484;48.736;9.332;2022-09-17T08:21:59;11.10;1.00
20650;DHT22;10484;48.736;9.332;2022-09-17T08:24:25;11.10;1.00
20650;DHT22;10484;48.736;9.332;2022-09-17T08:26:52;11.10;1.00
20650;DHT22;10484;48.736;9.332;2022-09-17T08:29:18;11.10;1.00
20650;DHT22;10484;48.736;9.332;2022-09-17T08:31:43;11.10;1.00
20650;DHT22;10484;48.736;9.332;2022-09-17T08:34:09;11.20;1.00
20650;DHT22;10484;48.736;9.332;2022-09-17T08:36:35;11.20;1.00
20650;DHT22;10484;48.736;9.332;2022-09-17T08:39:01;11.20;1.00
20650;DHT22;10484;48.736;9.332;2022-09-17T08:46:49;11.30;1.00
20650;DHT22;10484;48.736;9.332;2022-09-17T08:49:36;11.30;1.00
20650;DHT22;10484;48.736;9.332;2022-09-17T09:00:52;11.40;1.00
20650;DHT22;10484;48.736;9.332;2022-09-17T09:03:30;11.40;1.00
20650;DHT22;10484;48.736;9.332;2022-09-17T09:05:59;11.40;1.00
20650;DHT22;10484;48.736;9.332;2022-09-17T09:08:31;11.40;1.00
20650;DHT22;10484;48.736;9.332;2022-09-17T09:11:00;11.50;1.00
20650;DHT22;10484;48.736;9.332;2022-09-17T09:13:33;11.50;1.00
20650;DHT22;10484;48.736;9.332;2022-09-17T09:16:04;11.50;1.00
20650;DHT22;10484;48.736;9.332;2022-09-17T09:18:36;11.60;1.00
20650;DHT22;10484;48.736;9.332;2022-09-17T09:23:55;11.70;1.00
20650;DHT22;10484;48.736;9.332;2022-09-17T09:26:43;11.80;1.00
20650;DHT22;10484;48.736;9.332;2022-09-17T09:32:10;11.80;1.00
20650;DHT22;10484;48.736;9.332;2022-09-17T09:34:37;11.90;1.00
20650;DHT22;10484;48.736;9.332;2022-09-17T09:39:52;11.90;1.00
20650;DHT22;10484;48.736;9.332;2022-09-17T09:42:36;12.00;1.00
20650;DHT22;10484;48.736;9.332;2022-09-17T09:45:47;12.00;1.00
20650;DHT22;10484;48.736;9.332;2022-09-17T09:48:26;12.00;1.00
20650;DHT22;10484;48.736;9.332;2022-09-17T09:51:40;12.00;1.00
20650;DHT22;10484;48.736;9.332;2022-09-17T09:54:30;12.10;1.00
20650;DHT22;10484;48.736;9.332;2022-09-17T09:57:03;12.10;1.00
20650;DHT22;10484;48.736;9.332;2022-09-17T09:59:32;12.10;1.00
20650;DHT22;10484;48.736;9.332;2022-09-17T10:02:00;12.20;1.00
20650;DHT22;10484;48.736;9.332;2022-09-17T10:04:27;12.20;1.00
20650;DHT22;10484;48.736;9.332;2022-09-17T10:07:02;12.20;1.00
20650;DHT22;10484;48.736;9.332;2022-09-17T10:09:28;12.20;1.00
20650;DHT22;10484;48.736;9.332;2022-09-17T10:14:38;12.20;1.00
20650;DHT22;10484;48.736;9.332;2022-09-17T10:17:20;12.20;1.00
20650;DHT22;10484;48.736;9.332;2022-09-17T10:20:14;12.30;1.00
20650;DHT22;10484;48.736;9.332;2022-09-17T10:22:44;12.30;1.00
20650;DHT22;10484;48.736;9.332;2022-09-17T10:25:31;12.30;1.00
20650;DHT22;10484;48.736;9.332;2022-09-17T10:27:59;12.30;1.00
20650;DHT22;10484;48.736;9.332;2022-09-17T10:30:26;12.40;1.00
20650;DHT22;10484;48.736;9.332;2022-09-17T10:33:15;12.50;1.00
20650;DHT22;10484;48.736;9.332;2022-09-17T10:36:06;12.50;1.00
20650;DHT22;10484;48.736;9.332;2022-09-17T10:38:41;12.60;1.00
20650;DHT22;10484;48.736;9.332;2022-09-17T10:41:26;12.60;1.00
20650;DHT22;10484;48.736;9.332;2022-09-17T10:43:52;12.60;1.00
20650;DHT22;10484;48.736;9.332;2022-09-17T10:46:25;12.70;1.00
20650;DHT22;10484;48.736;9.332;2022-09-17T10:49:25;12.80;1.00
20650;DHT22;10484;48.736;9.332;2022-09-17T10:52:49;12.90;1.00
20650;DHT22;10484;48.736;9.332;2022-09-17T11:07:59;13.40;1.00
20650;DHT22;10484;48.736;9.332;2022-09-17T11:10:32;13.50;1.00
20650;DHT22;10484;48.736;9.332;2022-09-17T11:13:22;13.60;1.00
20650;DHT22;10484;48.736;9.332;2022-09-17T11:21:34;14.00;1.00
20650;DHT22;10484;48.736;9.332;2022-09-17T11:38:07;14.50;1.00
20650;DHT22;10484;48.736;9.332;2022-09-17T11:43:26;14.60;1.00
20650;DHT22;10484;48.736;9.332;2022-09-17T11:46:20;14.70;1.00
20650;DHT22;10484;48.736;9.332;2022-09-17T11:49:03;14.70;1.00
20650;DHT22;10484;48.736;9.332;2022-09-17T11:52:03;14.70;1.00
20650;DHT22;10484;48.736;9.332;2022-09-17T11:54:37;14.80;1.00
20650;DHT22;10484;48.736;9.332;2022-09-17T11:57:13;14.80;1.00
20650;DHT22;10484;48.736;9.332;2022-09-17T11:59:50;14.90;1.00
20650;DHT22;10484;48.736;9.332;2022-09-17T12:02:24;14.90;1.00
20650;DHT22;10484;48.736;9.332;2022-09-17T12:04:56;14.90;1.00
20650;DHT22;10484;48.736;9.332;2022-09-17T12:10:03;15.00;1.00
20650;DHT22;10484;48.736;9.332;2022-09-17T12:12:37;15.10;1.00
20650;DHT22;10484;48.736;9.332;2022-09-17T12:15:13;15.20;1.00
20650;DHT22;10484;48.736;9.332;2022-09-17T12:20:33;15.20;1.00
20650;DHT22;10484;48.736;9.332;2022-09-17T12:23:03;15.20;1.00
20650;DHT22;10484;48.736;9.332;2022-09-17T12:25:38;15.20;1.00
20650;DHT22;10484;48.736;9.332;2022-09-17T12:28:12;15.20;1.00
20650;DHT22;10484;48.736;9.332;2022-09-17T12:30:52;15.20;1.00
20650;DHT22;10484;48.736;9.332;2022-09-17T12:36:17;15.20;1.00
20650;DHT22;10484;48.736;9.332;2022-09-17T12:39:12;15.20;1.00
20650;DHT22;10484;48.736;9.332;2022-09-17T12:59:07;15.00;1.00
20650;DHT22;10484;48.736;9.332;2022-09-17T13:01:34;15.00;1.00
20650;DHT22;10484;48.736;9.332;2022-09-17T13:06:56;15.00;1.00
20650;DHT22;10484;48.736;9.332;2022-09-17T13:12:19;14.90;1.00
20650;DHT22;10484;48.736;9.332;2022-09-17T13:17:31;14.80;1.00
20650;DHT22;10484;48.736;9.332;2022-09-17T13:20:00;14.80;1.00
20650;DHT22;10484;48.736;9.332;2022-09-17T13:22:29;14.80;1.00
20650;DHT22;10484;48.736;9.332;2022-09-17T13:25:05;14.80;1.00
20650;DHT22;10484;48.736;9.332;2022-09-17T13:27:32;14.80;1.00
20650;DHT22;10484;48.736;9.332;2022-09-17T13:30:00;14.70;1.00
20650;DHT22;10484;48.736;9.332;2022-09-17T13:40:34;14.70;1.00
20650;DHT22;10484;48.736;9.332;2022-09-17T13:45:29;14.60;1.00
20650;DHT22;10484;48.736;9.332;2022-09-17T13:48:04;14.70;1.00
20650;DHT22;10484;48.736;9.332;2022-09-17T13:50:33;14.70;1.00
20650;DHT22;10484;48.736;9.332;2022-09-17T13:58:28;14.80;1.00
20650;DHT22;10484;48.736;9.332;2022-09-17T14:13:57;14.70;1.00
20650;DHT22;10484;48.736;9.332;2022-09-17T14:19:23;14.70;1.00
20650;DHT22;10484;48.736;9.332;2022-09-17T14:24:36;14.70;1.00
20650;DHT22;10484;48.736;9.332;2022-09-17T14:30:03;14.80;1.00
20650;DHT22;10484;48.736;9.332;2022-09-17T14:35:38;14.80;1.00
20650;DHT22;10484;48.736;9.332;2022-09-17T14:38:32;14.90;1.00
20650;DHT22;10484;48.736;9.332;2022-09-17T14:41:02;15.00;1.00
20650;DHT22;10484;48.736;9.332;2022-09-17T14:43:55;15.00;1.00
20650;DHT22;10484;48.736;9.332;2022-09-17T14:46:37;15.00;1.00
20650;DHT22;10484;48.736;9.332;2022-09-17T14:49:23;15.00;1.00
20650;DHT22;10484;48.736;9.332;2022-09-17T14:51:51;15.00;1.00
20650;DHT22;10484;48.736;9.332;2022-09-17T14:54:27;15.00;1.00
20650;DHT22;10484;48.736;9.332;2022-09-17T14:56:55;15.00;1.00
20650;DHT22;10484;48.736;9.332;2022-09-17T15:01:55;14.90;1.00
20650;DHT22;10484;48.736;9.332;2022-09-17T15:04:24;14.90;1.00
20650;DHT22;10484;48.736;9.332;2022-09-17T15:06:50;14.90;1.00
20650;DHT22;10484;48.736;9.332;2022-09-17T15:09:23;14.90;1.00
20650;DHT22;10484;48.736;9.332;2022-09-17T15:11:53;14.90;1.00
20650;DHT22;10484;48.736;9.332;2022-09-17T15:14:21;14.90;1.00
20650;DHT22;10484;48.736;9.332;2022-09-17T15:16:53;14.90;1.00
20650;DHT22;10484;48.736;9.332;2022-09-17T15:19:25;14.90;1.00
20650;DHT22;10484;48.736;9.332;2022-09-17T15:21:54;14.90;1.00
20650;DHT22;10484;48.736;9.332;2022-09-17T15:27:13;14.90;1.00
20650;DHT22;10484;48.736;9.332;2022-09-17T15:29:43;14.90;1.00
20650;DHT22;10484;48.736;9.332;2022-09-17T15:32:13;14.90;1.00
20650;DHT22;10484;48.736;9.332;2022-09-17T15:34:40;14.90;1.00
20650;DHT22;10484;48.736;9.332;2022-09-17T15:37:17;14.90;1.00
20650;DHT22;10484;48.736;9.332;2022-09-17T15:39:47;14.90;1.00
20650;DHT22;10484;48.736;9.332;2022-09-17T15:42:26;14.90;1.00
20650;DHT22;10484;48.736;9.332;2022-09-17T15:44:57;14.90;1.00
20650;DHT22;10484;48.736;9.332;2022-09-17T15:47:54;14.90;1.00
20650;DHT22;10484;48.736;9.332;2022-09-17T15:52:57;14.80;1.00
20650;DHT22;10484;48.736;9.332;2022-09-17T15:55:44;14.80;1.00
20650;DHT22;10484;48.736;9.332;2022-09-17T15:58:25;14.80;1.00
20650;DHT22;10484;48.736;9.332;2022-09-17T16:08:48;14.80;1.00
20650;DHT22;10484;48.736;9.332;2022-09-17T16:11:14;14.80;1.00
20650;DHT22;10484;48.736;9.332;2022-09-17T16:13:40;14.80;1.00
20650;DHT22;10484;48.736;9.332;2022-09-17T16:16:06;14.80;1.00
20650;DHT22;10484;48.736;9.332;2022-09-17T16:18:33;14.80;1.00
20650;DHT22;10484;48.736;9.332;2022-09-17T16:20:58;14.80;1.00
20650;DHT22;10484;48.736;9.332;2022-09-17T16:23:24;14.80;1.00
20650;DHT22;10484;48.736;9.332;2022-09-17T16:25:50;14.70;1.00
20650;DHT22;10484;48.736;9.332;2022-09-17T16:28:18;14.70;1.00
20650;DHT22;10484;48.736;9.332;2022-09-17T16:30:46;14.70;1.00
20650;DHT22;10484;48.736;9.332;2022-09-17T16:33:14;14.70;1.00
20650;DHT22;10484;48.736;9.332;2022-09-17T16:35:41;14.70;1.00
20650;DHT22;10484;48.736;9.332;2022-09-17T16:38:07;14.70;1.00
20650;DHT22;10484;48.736;9.332;2022-09-17T16:40:33;14.70;1.00
20650;DHT22;10484;48.736;9.332;2022-09-17T16:43:01;14.70;1.00
20650;DHT22;10484;48.736;9.332;2022-09-17T16:45:28;14.70;1.00
20650;DHT22;10484;48.736;9.332;2022-09-17T16:47:53;14.60;1.00
20650;DHT22;10484;48.736;9.332;2022-09-17T16:50:19;14.60;1.00
20650;DHT22;10484;48.736;9.332;2022-09-17T16:52:45;14.60;1.00
20650;DHT22;10484;48.736;9.332;2022-09-17T16:55:13;14.60;1.00
20650;DHT22;10484;48.736;9.332;2022-09-17T16:57:39;14.60;1.00
20650;DHT22;10484;48.736;9.332;2022-09-17T17:00:08;14.60;1.00
20650;DHT22;10484;48.736;9.332;2022-09-17T17:02:38;14.50;1.00
20650;DHT22;10484;48.736;9.332;2022-09-17T17:05:04;14.50;1.00
20650;DHT22;10484;48.736;9.332;2022-09-17T17:07:29;14.50;1.00
20650;DHT22;10484;48.736;9.332;2022-09-17T17:09:58;14.50;1.00
20650;DHT22;10484;48.736;9.332;2022-09-17T17:12:25;14.50;1.00
20650;DHT22;10484;48.736;9.332;2022-09-17T17:14:51;14.50;1.00
20650;DHT22;10484;48.736;9.332;2022-09-17T17:17:18;14.50;1.00
20650;DHT22;10484;48.736;9.332;2022-09-17T17:19:45;14.50;1.00
20650;DHT22;10484;48.736;9.332;2022-09-17T17:22:12;14.50;1.00
20650;DHT22;10484;48.736;9.332;2022-09-17T17:24:37;14.50;1.00
20650;DHT22;10484;48.736;9.332;2022-09-17T17:27:03;14.50;1.00
20650;DHT22;10484;48.736;9.332;2022-09-17T17:29:29;14.40;1.00
20650;DHT22;10484;48.736;9.332;2022-09-17T17:31:54;14.40;1.00
20650;DHT22;10484;48.736;9.332;2022-09-17T17:34:20;14.40;1.00
20650;DHT22;10484;48.736;9.332;2022-09-17T17:36:49;14.30;1.00
20650;DHT22;10484;48.736;9.332;2022-09-17T17:39:15;14.30;1.00
20650;DHT22;10484;48.736;9.332;2022-09-17T17:41:40;14.30;1.00
20650;DHT22;10484;48.736;9.332;2022-09-17T17:44:07;14.20;1.00
20650;DHT22;10484;48.736;9.332;2022-09-17T17:46:33;14.10;1.00
20650;DHT22;10484;48.736;9.332;2022-09-17T17:48:59;14.10;1.00
20650;DHT22;10484;48.736;9.332;2022-09-17T17:51:24;14.10;1.00
20650;DHT22;10484;48.736;9.332;2022-09-17T17:53:51;14.10;1.00
20650;DHT22;10484;48.736;9.332;2022-09-17T17:56:17;14.00;1.00
20650;DHT22;10484;48.736;9.332;2022-09-17T17:58:44;14.00;1.00
20650;DHT22;10484;48.736;9.332;2022-09-17T18:01:19;14.00;1.00
20650;DHT22;10484;48.736;9.332;2022-09-17T18:03:46;13.90;1.00
20650;DHT22;10484;48.736;9.332;2022-09-17T18:06:11;13.90;1.00
20650;DHT22;10484;48.736;9.332;2022-09-17T18:08:39;13.90;1.00
20650;DHT22;10484;48.736;9.332;2022-09-17T18:11:06;13.80;1.00
20650;DHT22;10484;48.736;9.332;2022-09-17T18:13:34;13.80;1.00
20650;DHT22;10484;48.736;9.332;2022-09-17T18:16:00;13.70;1.00
20650;DHT22;10484;48.736;9.332;2022-09-17T18:18:31;13.70;1.00
20650;DHT22;10484;48.736;9.332;2022-09-17T18:21:03;13.70;1.00
20650;DHT22;10484;48.736;9.332;2022-09-17T18:23:32;13.60;1.00
20650;DHT22;10484;48.736;9.332;2022-09-17T18:25:59;13.70;1.00
20650;DHT22;10484;48.736;9.332;2022-09-17T18:28:26;13.70;1.00
20650;DHT22;10484;48.736;9.332;2022-09-17T18:30:53;13.60;1.00
20650;DHT22;10484;48.736;9.332;2022-09-17T18:33:20;13.60;1.00
20650;DHT22;10484;48.736;9.332;2022-09-17T18:35:46;13.60;1.00
20650;DHT22;10484;48.736;9.332;2022-09-17T18:38:13;13.50;1.00
20650;DHT22;10484;48.736;9.332;2022-09-17T18:40:39;13.50;1.00
20650;DHT22;10484;48.736;9.332;2022-09-17T18:43:06;13.50;1.00
20650;DHT22;10484;48.736;9.332;2022-09-17T18:45:31;13.50;1.00
20650;DHT22;10484;48.736;9.332;2022-09-17T18:47:57;13.50;1.00
20650;DHT22;10484;48.736;9.332;2022-09-17T18:50:23;13.40;1.00
20650;DHT22;10484;48.736;9.332;2022-09-17T18:52:48;13.40;1.00
20650;DHT22;10484;48.736;9.332;2022-09-17T18:55:14;13.40;1.00
20650;DHT22;10484;48.736;9.332;2022-09-17T18:57:40;13.40;1.00
20650;DHT22;10484;48.736;9.332;2022-09-17T19:00:06;13.40;1.00
20650;DHT22;10484;48.736;9.332;2022-09-17T19:02:34;13.40;1.00
20650;DHT22;10484;48.736;9.332;2022-09-17T19:05:00;13.30;1.00
20650;DHT22;10484;48.736;9.332;2022-09-17T19:07:25;13.30;1.00